< Cyclone 201304 2013 Season Cyclone 201307 >
Cyclone 201305 (Narelle)
General InformationTrack Information on Google MapsDetailed Wind InformationList of All Images || ResourceGoogle EarthGE AnimationAtom FeedGeoJSON
Detalied Best Track (Time Zone = UTC)
Year Month Day Hour Lat. Long. Pressure (hPa) Wind (kt) Class Image Chart
2013 1 5 00 -9.9 125.8 1002 0 0 Image --
2013 1 5 06 -9.9 126.3 1001 0 0 Image --
2013 1 5 12 -10.4 126.0 1002 20 2 Image --
2013 1 5 18 -10.4 125.8 1003 20 2 Image --
2013 1 6 00 -10.4 125.5 1000 25 2 Image --
2013 1 6 06 -10.7 125.0 1001 25 2 Image --
2013 1 6 12 -11.0 123.7 1002 25 2 Image --
2013 1 6 18 -11.1 122.9 1002 25 2 Image --
2013 1 7 00 -11.3 121.8 1001 25 2 Image --
2013 1 7 06 -11.2 121.4 1001 25 2 Image --
2013 1 7 12 -11.2 120.7 999 25 2 Image --
2013 1 7 18 -11.5 119.9 997 30 2 Image --
2013 1 8 00 -11.8 119.1 995 35 3 Image --
2013 1 8 06 -12.0 118.4 993 40 3 Image --
2013 1 8 12 -12.1 117.8 987 45 3 Image --
2013 1 8 18 -12.3 117.2 985 50 4 Image --
2013 1 9 00 -12.5 116.7 982 55 4 Image --
2013 1 9 06 -12.9 116.4 978 60 4 Image --
2013 1 9 12 -13.3 116.1 972 65 5 Image --
2013 1 9 18 -13.6 115.9 972 65 5 Image --
2013 1 10 00 -14.3 115.7 967 70 5 Image --
2013 1 10 06 -15.5 115.2 964 75 5 Image --
2013 1 10 09 -15.8 115.1 956 80 5 Image --
2013 1 10 12 -16.2 115.0 952 85 5 Image --
2013 1 10 18 -16.5 114.4 949 90 5 Image --
2013 1 11 00 -16.9 113.8 943 95 5 Image --
2013 1 11 06 -17.5 113.2 938 100 5 Image --
2013 1 11 12 -17.8 112.7 930 105 5 Image --
2013 1 11 18 -18.2 112.3 930 105 5 Image --
2013 1 12 00 -18.5 112.0 932 105 5 Image --
2013 1 12 06 -19.2 112.0 936 100 5 Image --
2013 1 12 12 -19.8 111.6 941 95 5 Image --
2013 1 12 18 -20.4 111.3 950 85 5 Image --
2013 1 13 00 -21.3 110.8 965 70 5 Image --
2013 1 13 06 -22.2 110.4 969 65 5 Image --
2013 1 13 12 -23.2 110.1 976 50 4 Image --
2013 1 13 18 -24.2 110.0 983 45 3 Image --
2013 1 14 00 -25.2 109.9 987 40 3 Image --
2013 1 14 06 -26.4 109.7 994 35 3 Image --
2013 1 14 12 -27.5 109.5 1000 25 2 Image --
2013 1 14 15 -28.1 109.3 991 38 3 Image --
2013 1 14 18 -28.7 109.2 1001 25 2 Image --
2013 1 15 00 -29.9 109.0 1004 20 2 Image --
2013 1 15 06 -31.0 109.5 1006 15 2 Image --
< Cyclone 201304 2013 Season Cyclone 201307 >

Help